Time;durP1;ratioP1;P1;durP2;ratioP2;P2;SDS_P1;SDS_P2;PMS_P1;PMS_P2;Temp;Humidity;BMP_temperature;BMP_pressure;BME280_temperature;BME280_humidity;BME280_pressure;Samples;Min_cycle;Max_cycle;Signal;HPM_P1;HPM_P2
2020/12/26 00:04:00;;;;;;;5.15;2.60;;;3.10;70.60;;;;;;6124064;23;20159;-73
2020/12/26 00:06:26;;;;;;;2.95;2.13;;;3.10;70.90;;;;;;6127024;23;20164;-73
2020/12/26 00:12:15;;;;;;;6.40;2.60;;;3.00;70.30;;;;;;6125434;23;20242;-73
2020/12/26 00:18:04;;;;;;;6.07;2.85;;;2.90;70.50;;;;;;6125457;23;20207;-73
2020/12/26 00:27:21;;;;;;;4.90;2.85;;;3.10;70.70;;;;;;6126457;23;20140;-74
2020/12/26 00:30:15;;;;;;;3.75;2.65;;;3.10;70.90;;;;;;6125623;23;20429;-74
2020/12/26 00:32:41;;;;;;;4.50;2.45;;;3.10;71.00;;;;;;6163643;23;20222;-73
2020/12/26 00:35:09;;;;;;;4.18;2.78;;;3.10;70.60;;;;;;6155053;23;20614;-73
2020/12/26 00:40:57;;;;;;;3.35;2.33;;;3.20;70.40;;;;;;6155084;23;20167;-73
2020/12/26 00:46:47;;;;;;;3.08;2.55;;;3.20;70.50;;;;;;6155730;23;20155;-73
2020/12/26 00:52:35;;;;;;;2.97;2.00;;;3.30;69.90;;;;;;6155729;23;20549;-73
2020/12/26 01:01:46;;;;;;;3.90;2.50;;;3.20;68.40;;;;;;6184521;23;20154;-73
2020/12/26 01:07:35;;;;;;;4.38;2.50;;;3.20;70.80;;;;;;6187281;23;20513;-73
2020/12/26 01:10:01;;;;;;;4.55;2.53;;;3.20;71.20;;;;;;6187318;23;20159;-73
2020/12/26 01:12:28;;;;;;;5.43;2.63;;;3.20;71.50;;;;;;6187367;23;20187;-73
2020/12/26 01:14:54;;;;;;;3.88;2.90;;;3.20;71.60;;;;;;6187165;23;20151;-73
2020/12/26 01:17:22;;;;;;;3.30;2.40;;;3.20;71.70;;;;;;6187146;23;20160;-72
2020/12/26 01:20:03;;;;;;;5.65;2.78;;;3.20;71.70;;;;;;6187185;23;20641;-72
2020/12/26 01:22:43;;;;;;;4.95;2.85;;;3.20;71.00;;;;;;6187584;23;20155;-73
2020/12/26 01:25:09;;;;;;;3.53;2.67;;;3.20;70.70;;;;;;6187521;23;20202;-73
2020/12/26 01:27:36;;;;;;;4.70;3.00;;;3.30;71.10;;;;;;6187168;23;20158;-73
2020/12/26 01:30:20;;;;;;;4.40;2.50;;;3.30;70.40;;;;;;6186175;23;20167;-73
2020/12/26 01:32:48;;;;;;;3.28;2.35;;;3.30;69.70;;;;;;6187378;23;20183;-73
2020/12/26 01:35:15;;;;;;;3.75;2.58;;;3.30;69.40;;;;;;6187794;23;20598;-73
2020/12/26 01:37:41;;;;;;;5.40;3.00;;;3.30;69.20;;;;;;6186671;23;20615;-73
2020/12/26 01:40:10;;;;;;;6.95;5.20;;;3.30;68.80;;;;;;6186881;23;20167;-74
2020/12/26 01:43:08;;;;;;;5.22;2.92;;;3.30;68.30;;;;;;6187003;23;20230;-73
2020/12/26 01:45:34;;;;;;;4.95;3.17;;;3.20;68.20;;;;;;6187010;23;20156;-73
2020/12/26 01:48:03;;;;;;;4.15;3.00;;;3.20;69.00;;;;;;6187150;23;20147;-73
2020/12/26 01:53:53;;;;;;;3.08;2.10;;;3.10;69.60;;;;;;6186656;23;20166;-73
2020/12/26 01:56:21;;;;;;;3.75;2.53;;;3.00;69.30;;;;;;6186821;23;20151;-73
2020/12/26 02:06:24;;;;;;;4.45;3.22;;;3.00;70.00;;;;;;6186847;23;20667;-73
2020/12/26 02:08:50;;;;;;;3.75;2.40;;;3.00;69.70;;;;;;6186441;23;20151;-73
2020/12/26 02:14:45;;;;;;;4.70;3.15;;;3.00;69.30;;;;;;6186636;23;20185;-74
2020/12/26 02:17:11;;;;;;;2.83;2.30;;;2.90;68.00;;;;;;6186574;23;20159;-74
2020/12/26 02:19:40;;;;;;;4.40;3.05;;;2.90;68.30;;;;;;6186697;23;20148;-74
2020/12/26 02:22:10;;;;;;;5.68;3.10;;;2.90;68.10;;;;;;6187128;23;20206;-73
2020/12/26 02:27:59;;;;;;;3.75;2.83;;;3.00;69.00;;;;;;6185897;23;20227;-73
2020/12/26 02:30:25;;;;;;;4.40;2.90;;;3.00;67.60;;;;;;6186669;23;20214;-73
2020/12/26 02:36:14;;;;;;;3.28;2.30;;;3.00;67.30;;;;;;6186684;23;20578;-73
2020/12/26 02:38:41;;;;;;;4.20;2.47;;;3.00;66.80;;;;;;6186727;23;20163;-74
2020/12/26 02:41:08;;;;;;;3.03;2.40;;;3.00;67.10;;;;;;6186642;23;20257;-73
2020/12/26 02:43:36;;;;;;;4.00;2.42;;;3.00;67.00;;;;;;6185997;23;20213;-73
2020/12/26 02:46:16;;;;;;;4.25;2.53;;;3.00;66.90;;;;;;6187048;23;20156;-73
2020/12/26 02:48:42;;;;;;;4.10;2.50;;;3.00;67.20;;;;;;6186794;23;20158;-73
2020/12/26 02:51:38;;;;;;;3.10;2.20;;;3.00;66.90;;;;;;6186859;23;20458;-73
2020/12/26 02:54:04;;;;;;;3.55;2.83;;;3.00;66.90;;;;;;6186350;23;20158;-73
2020/12/26 02:56:30;;;;;;;2.60;2.10;;;2.90;67.00;;;;;;6185770;23;20163;-73
2020/12/26 02:58:58;;;;;;;3.28;2.20;;;3.00;66.90;;;;;;6186640;23;20202;-73
2020/12/26 03:08:17;;;;;;;5.45;3.10;;;2.90;66.70;;;;;;6186322;23;20134;-74
2020/12/26 03:10:53;;;;;;;2.50;2.08;;;2.90;66.80;;;;;;6186741;23;20206;-73
2020/12/26 03:13:20;;;;;;;3.42;2.42;;;2.90;66.80;;;;;;6186490;23;20459;-73
2020/12/26 03:15:48;;;;;;;3.33;2.55;;;2.90;66.90;;;;;;6186061;23;20159;-73
2020/12/26 03:21:38;;;;;;;3.88;2.30;;;2.90;66.80;;;;;;6186283;23;20150;-73
2020/12/26 03:27:27;;;;;;;5.47;2.70;;;2.90;67.50;;;;;;6185105;23;20157;-74
2020/12/26 03:29:54;;;;;;;3.30;2.10;;;2.90;68.00;;;;;;6185430;23;20163;-74
2020/12/26 03:32:22;;;;;;;3.38;2.25;;;2.90;67.40;;;;;;6186204;23;20185;-74
2020/12/26 03:34:49;;;;;;;3.90;2.70;;;2.80;66.60;;;;;;6185580;23;20163;-73
2020/12/26 03:37:16;;;;;;;3.25;2.45;;;2.80;67.00;;;;;;6185859;23;20159;-73
2020/12/26 03:39:43;;;;;;;2.90;2.45;;;2.70;67.80;;;;;;6185353;23;20210;-73
2020/12/26 03:42:24;;;;;;;4.82;3.08;;;2.80;68.10;;;;;;6185924;23;20147;-73
2020/12/26 03:44:51;;;;;;;3.30;2.40;;;2.80;67.90;;;;;;6185784;23;20154;-73
2020/12/26 03:47:17;;;;;;;3.60;2.45;;;2.80;67.90;;;;;;6185882;23;20166;-73
2020/12/26 03:53:07;;;;;;;4.20;2.70;;;2.80;67.10;;;;;;6185663;23;20190;-73
2020/12/26 03:56:29;;;;;;;3.50;2.55;;;2.70;66.80;;;;;;6186097;23;20147;-73
2020/12/26 03:58:55;;;;;;;2.83;2.05;;;2.70;66.50;;;;;;6185587;23;20214;-73
2020/12/26 04:04:44;;;;;;;2.85;2.00;;;2.60;65.90;;;;;;6185561;23;20243;-73
2020/12/26 04:07:10;;;;;;;2.58;2.00;;;2.60;65.40;;;;;;6185602;23;20222;-73
2020/12/26 04:13:00;;;;;;;6.60;2.17;;;2.60;64.80;;;;;;6185313;23;20201;-73
2020/12/26 04:15:51;;;;;;;3.55;2.40;;;2.50;64.30;;;;;;6186426;23;20448;-72
2020/12/26 04:18:17;;;;;;;3.67;2.50;;;2.40;64.50;;;;;;6185719;23;20183;-73
2020/12/26 04:21:02;;;;;;;3.70;2.30;;;2.30;64.50;;;;;;6186374;23;20155;-73
2020/12/26 04:23:28;;;;;;;5.00;2.05;;;2.20;65.10;;;;;;6185526;23;20187;-73
2020/12/26 04:26:08;;;;;;;2.65;1.42;;;2.20;65.60;;;;;;6185677;23;20210;-73
2020/12/26 04:28:35;;;;;;;3.65;1.88;;;2.10;64.80;;;;;;6185787;23;20155;-73
2020/12/26 04:31:02;;;;;;;3.90;2.45;;;2.00;64.90;;;;;;6185318;23;20614;-73
2020/12/26 04:33:37;;;;;;;3.95;2.25;;;2.00;64.50;;;;;;6186129;23;20498;-73
2020/12/26 04:36:04;;;;;;;3.65;2.17;;;1.90;65.00;;;;;;6185852;23;20278;-73
2020/12/26 04:41:52;;;;;;;3.05;2.10;;;1.80;65.20;;;;;;6184968;23;20471;-73
2020/12/26 04:44:20;;;;;;;4.20;2.42;;;1.80;65.40;;;;;;6185698;23;20159;-73
2020/12/26 04:46:50;;;;;;;3.65;2.90;;;1.70;65.90;;;;;;6185724;23;20455;-73
2020/12/26 04:49:20;;;;;;;4.70;2.67;;;1.70;66.30;;;;;;6185228;23;20163;-73
2020/12/26 04:51:51;;;;;;;3.30;2.45;;;1.60;66.70;;;;;;6185758;23;20502;-73
2020/12/26 04:54:24;;;;;;;2.67;2.10;;;1.50;66.90;;;;;;6185204;23;20163;-73
2020/12/26 04:56:53;;;;;;;4.22;2.35;;;1.50;67.30;;;;;;6180140;23;20170;-73
2020/12/26 04:59:43;;;;;;;3.88;1.73;;;1.50;68.00;;;;;;6186061;23;20152;-73
2020/12/26 05:02:43;;;;;;;3.42;2.30;;;1.60;68.20;;;;;;6186116;23;20183;-73
2020/12/26 05:05:09;;;;;;;3.03;2.00;;;1.60;67.60;;;;;;6186164;23;20158;-73
2020/12/26 05:07:36;;;;;;;3.72;2.15;;;1.50;66.40;;;;;;6185427;23;20159;-73
2020/12/26 05:10:03;;;;;;;3.42;1.95;;;1.40;66.40;;;;;;6185607;23;20159;-73
2020/12/26 05:12:30;;;;;;;3.40;2.08;;;1.40;66.70;;;;;;6185538;23;20187;-73
2020/12/26 05:15:01;;;;;;;4.00;2.55;;;1.40;67.10;;;;;;6185748;23;20159;-73
2020/12/26 05:17:27;;;;;;;3.55;2.78;;;1.40;67.40;;;;;;6185305;23;20170;-73
2020/12/26 05:19:54;;;;;;;4.13;3.00;;;1.50;67.30;;;;;;6185499;23;20159;-73
2020/12/26 05:22:20;;;;;;;3.80;2.40;;;1.50;67.40;;;;;;6185185;23;20163;-73
2020/12/26 05:24:52;;;;;;;4.57;3.10;;;1.50;67.50;;;;;;6185081;23;20628;-73
2020/12/26 05:27:24;;;;;;;5.55;3.22;;;1.50;67.50;;;;;;6185097;23;20163;-73
2020/12/26 05:29:51;;;;;;;5.35;3.40;;;1.50;67.60;;;;;;6185094;23;20152;-75
2020/12/26 05:32:22;;;;;;;5.95;3.67;;;1.50;67.90;;;;;;6185722;23;20179;-73
2020/12/26 05:34:49;;;;;;;5.20;3.72;;;1.60;68.40;;;;;;6185227;23;20171;-73
2020/12/26 05:37:16;;;;;;;3.80;2.72;;;1.60;68.00;;;;;;6184934;23;20214;-74
2020/12/26 05:43:08;;;;;;;4.90;3.50;;;1.70;67.70;;;;;;6185081;23;20519;-73
2020/12/26 05:45:39;;;;;;;4.18;3.47;;;1.70;67.30;;;;;;6185961;23;20206;-73
2020/12/26 05:48:11;;;;;;;5.35;3.78;;;1.70;67.40;;;;;;6185310;23;20172;-73
2020/12/26 05:50:40;;;;;;;5.30;3.97;;;1.70;67.50;;;;;;6185515;23;20170;-73
2020/12/26 05:53:08;;;;;;;5.75;3.63;;;1.70;67.50;;;;;;6186345;23;20653;-73
2020/12/26 05:55:40;;;;;;;5.50;3.70;;;1.70;68.20;;;;;;6187253;23;20238;-73
2020/12/26 05:58:06;;;;;;;6.57;4.00;;;1.70;68.20;;;;;;6186785;23;20162;-73
2020/12/26 06:00:37;;;;;;;5.85;3.58;;;1.80;67.90;;;;;;6186606;23;20163;-73
2020/12/26 06:03:27;;;;;;;4.35;3.67;;;1.80;67.20;;;;;;6185744;23;20482;-73
2020/12/26 06:05:54;;;;;;;6.07;4.25;;;1.80;67.00;;;;;;6186854;23;20183;-73
2020/12/26 06:08:22;;;;;;;6.57;3.92;;;1.80;66.60;;;;;;6187287;23;20233;-73
2020/12/26 06:10:59;;;;;;;6.88;4.60;;;1.80;66.80;;;;;;6187808;23;20151;-73
2020/12/26 06:16:50;;;;;;;6.47;3.92;;;1.80;66.90;;;;;;6186589;23;20215;-73
2020/12/26 06:19:19;;;;;;;5.75;4.22;;;1.70;66.90;;;;;;6187386;23;20148;-73
2020/12/26 06:21:51;;;;;;;6.95;4.32;;;1.70;67.50;;;;;;6187079;23;20148;-73
2020/12/26 06:24:18;;;;;;;5.20;3.90;;;1.70;67.60;;;;;;6187270;23;20151;-73
2020/12/26 06:30:06;;;;;;;6.50;4.30;;;1.80;67.50;;;;;;6186823;23;20206;-73
2020/12/26 06:32:33;;;;;;;6.18;3.67;;;1.80;67.10;;;;;;6187165;23;20179;-73
2020/12/26 06:35:01;;;;;;;9.23;5.72;;;1.80;67.00;;;;;;6186802;23;20163;-73
2020/12/26 06:37:27;;;;;;;10.15;6.15;;;1.80;66.20;;;;;;6186239;23;20163;-73
2020/12/26 06:39:54;;;;;;;9.45;5.55;;;1.80;66.60;;;;;;6186530;23;20174;-73
2020/12/26 06:42:23;;;;;;;5.88;4.75;;;1.80;66.50;;;;;;6186717;23;20230;-73
2020/12/26 06:44:50;;;;;;;6.50;4.68;;;1.70;66.40;;;;;;6187088;23;20194;-73
2020/12/26 06:50:41;;;;;;;8.40;5.75;;;1.70;65.70;;;;;;6106702;23;20174;-73
2020/12/26 06:56:46;;;;;;;7.32;4.70;;;1.60;66.00;;;;;;6186332;23;20217;-73
2020/12/26 07:02:34;;;;;;;6.97;4.18;;;1.50;65.50;;;;;;6186123;23;20739;-73
2020/12/26 07:05:01;;;;;;;7.82;4.25;;;1.40;65.50;;;;;;6186124;23;20148;-73
2020/12/26 07:14:02;;;;;;;5.85;4.20;;;1.20;65.80;;;;;;6185912;23;20202;-73
2020/12/26 07:16:43;;;;;;;7.50;4.55;;;1.10;65.80;;;;;;6185626;23;20646;-74
2020/12/26 07:19:23;;;;;;;9.95;6.30;;;1.10;66.60;;;;;;6186534;23;20151;-73
2020/12/26 07:21:50;;;;;;;7.70;5.05;;;1.00;66.20;;;;;;6185981;23;20167;-73
2020/12/26 07:25:04;;;;;;;6.30;4.53;;;1.00;66.40;;;;;;6186126;23;20155;-73
2020/12/26 07:27:32;;;;;;;6.60;4.78;;;0.90;66.50;;;;;;6185676;23;20162;-73
2020/12/26 07:30:10;;;;;;;6.00;4.32;;;0.80;65.20;;;;;;6186738;23;20154;-73
2020/12/26 07:32:53;;;;;;;4.93;4.22;;;0.60;65.70;;;;;;6186601;23;20257;-73
2020/12/26 07:42:08;;;;;;;7.45;5.35;;;0.50;67.00;;;;;;6082002;23;20162;-73
2020/12/26 07:44:35;;;;;;;10.00;7.03;;;0.70;67.50;;;;;;6186319;23;20238;-73
2020/12/26 07:47:12;;;;;;;13.80;7.97;;;0.80;67.10;;;;;;6186555;23;20151;-73
2020/12/26 07:49:38;;;;;;;7.38;5.05;;;0.80;67.00;;;;;;6186212;23;20148;-73
2020/12/26 07:52:06;;;;;;;10.15;6.65;;;0.90;66.60;;;;;;6185145;23;20223;-73
2020/12/26 07:58:03;;;;;;;12.70;9.10;;;1.00;66.90;;;;;;6185536;23;20600;-73
2020/12/26 08:00:32;;;;;;;11.95;8.95;;;1.10;66.60;;;;;;6185570;23;20166;-73
2020/12/26 08:06:21;;;;;;;51.97;23.33;;;1.40;65.80;;;;;;6186126;23;20492;-73
2020/12/26 08:08:47;;;;;;;35.58;17.45;;;1.60;66.50;;;;;;6185317;23;20611;-73
2020/12/26 08:14:13;;;;;;;19.98;10.20;;;1.80;65.60;;;;;;6185669;23;20148;-73
2020/12/26 08:17:10;;;;;;;18.17;11.65;;;1.90;64.80;;;;;;6185800;23;20197;-73
2020/12/26 08:19:37;;;;;;;10.50;8.10;;;2.10;65.60;;;;;;6186411;23;20230;-73
2020/12/26 08:25:46;;;;;;;16.85;11.50;;;2.30;63.40;;;;;;6185910;23;20134;-73
2020/12/26 08:28:17;;;;;;;18.55;13.68;;;2.30;63.00;;;;;;6185797;23;20151;-73
2020/12/26 08:37:05;;;;;;;14.07;11.30;;;2.10;62.50;;;;;;6184604;23;20158;-75
2020/12/26 08:39:34;;;;;;;14.60;10.68;;;2.00;62.30;;;;;;6184702;23;20217;-73
2020/12/26 08:42:01;;;;;;;13.43;10.30;;;2.00;63.20;;;;;;6185449;23;20523;-73
2020/12/26 08:47:50;;;;;;;13.52;8.43;;;2.20;64.20;;;;;;6185336;23;20201;-73
2020/12/26 08:51:09;;;;;;;11.13;6.90;;;2.40;63.10;;;;;;6185640;23;20206;-73
2020/12/26 08:53:37;;;;;;;10.63;6.72;;;2.80;63.30;;;;;;6185113;23;20273;-73
2020/12/26 08:56:03;;;;;;;15.18;8.60;;;3.20;61.80;;;;;;6184580;23;20622;-73
2020/12/26 08:58:32;;;;;;;12.50;8.00;;;3.70;61.30;;;;;;6185613;23;20163;-73
2020/12/26 09:01:00;;;;;;;9.95;7.43;;;4.10;58.80;;;;;;6183922;23;20225;-73
2020/12/26 09:03:28;;;;;;;10.32;7.30;;;4.40;57.80;;;;;;6185138;23;20194;-73
2020/12/26 09:09:20;;;;;;;8.75;5.68;;;4.80;56.30;;;;;;6185173;23;20210;-72
2020/12/26 09:12:02;;;;;;;9.80;6.72;;;4.70;56.30;;;;;;6185043;23;20154;-72
2020/12/26 09:14:29;;;;;;;9.13;5.88;;;5.10;56.20;;;;;;6160037;23;20504;-73
2020/12/26 09:17:22;;;;;;;7.15;5.30;;;5.50;55.90;;;;;;6184025;23;20148;-73
2020/12/26 09:23:00;;;;;;;6.28;5.32;;;6.20;53.60;;;;;;6182999;23;20151;-73
2020/12/26 09:25:28;;;;;;;6.43;5.15;;;6.50;52.20;;;;;;6183827;23;20147;-74
2020/12/26 09:28:04;;;;;;;7.65;4.45;;;6.70;50.90;;;;;;6186278;23;20159;-73
2020/12/26 09:37:20;;;;;;;8.13;4.13;;;7.30;49.10;;;;;;6186451;23;20467;-73
2020/12/26 09:44:01;;;;;;;5.53;4.22;;;7.80;47.80;;;;;;6187506;23;20238;-72
2020/12/26 09:46:33;;;;;;;6.10;4.20;;;8.10;47.50;;;;;;6185853;23;20159;-76
2020/12/26 09:49:00;;;;;;;7.30;5.03;;;8.30;46.60;;;;;;6184154;23;20167;-74
2020/12/26 09:52:11;;;;;;;6.32;4.55;;;8.60;46.10;;;;;;6188041;23;20152;-73
2020/12/26 09:58:02;;;;;;;8.55;5.38;;;8.90;44.60;;;;;;6185703;23;20170;-74
2020/12/26 10:03:30;;;;;;;6.28;4.25;;;9.10;43.60;;;;;;6183336;23;20186;-74
2020/12/26 10:08:54;;;;;;;6.45;4.35;;;9.40;42.80;;;;;;6185921;23;20186;-74
2020/12/26 10:11:25;;;;;;;5.35;3.75;;;9.50;42.70;;;;;;6184118;23;20653;-76
2020/12/26 10:13:54;;;;;;;6.47;3.85;;;9.50;42.40;;;;;;6183717;23;20262;-75
2020/12/26 10:16:20;;;;;;;6.43;3.90;;;9.70;42.20;;;;;;6184405;23;20167;-79
2020/12/26 10:18:48;;;;;;;5.80;4.72;;;9.90;41.60;;;;;;6184677;23;20170;-75
2020/12/26 10:21:19;;;;;;;9.50;3.85;;;10.00;40.40;;;;;;6180214;23;20462;-75
2020/12/26 10:23:49;;;;;;;5.00;3.05;;;10.10;39.70;;;;;;6184948;23;20159;-74
2020/12/26 10:26:24;;;;;;;10.07;5.57;;;10.30;40.10;;;;;;6184657;23;20167;-75
2020/12/26 10:28:51;;;;;;;7.03;5.25;;;10.60;40.20;;;;;;6180713;23;20182;-76
2020/12/26 10:31:19;;;;;;;8.70;5.30;;;10.80;39.40;;;;;;6182393;23;20194;-73
2020/12/26 10:33:46;;;;;;;5.20;3.88;;;10.90;37.70;;;;;;6184177;23;20190;-72
2020/12/26 10:36:15;;;;;;;12.25;7.32;;;10.70;36.60;;;;;;6184788;23;20459;-73
2020/12/26 10:38:42;;;;;;;6.35;4.30;;;10.70;37.40;;;;;;6184007;23;20163;-72
2020/12/26 10:41:08;;;;;;;6.85;3.28;;;10.80;36.80;;;;;;6183775;23;20209;-73
2020/12/26 10:43:46;;;;;;;3.63;2.80;;;11.10;35.50;;;;;;6182700;23;20209;-73
2020/12/26 10:46:13;;;;;;;3.30;2.58;;;11.30;34.80;;;;;;6183893;23;20155;-74
2020/12/26 10:48:40;;;;;;;4.03;3.15;;;11.40;34.70;;;;;;6176530;23;20514;-74
2020/12/26 10:51:10;;;;;;;4.47;3.00;;;11.60;33.90;;;;;;6178594;23;20199;-72
2020/12/26 10:56:59;;;;;;;6.80;3.28;;;11.80;33.70;;;;;;6181532;23;20143;-80
2020/12/26 10:59:25;;;;;;;4.55;2.92;;;11.90;33.80;;;;;;6180413;23;20167;-75
2020/12/26 11:01:52;;;;;;;3.90;2.80;;;12.30;33.60;;;;;;6182697;23;20962;-72
2020/12/26 11:04:23;;;;;;;2.30;1.80;;;12.70;33.70;;;;;;6182811;23;20650;-74
2020/12/26 11:06:54;;;;;;;2.85;1.60;;;13.10;33.70;;;;;;6183518;23;20160;-75
2020/12/26 11:09:24;;;;;;;6.88;1.95;;;13.40;30.30;;;;;;6180437;23;20148;-73
2020/12/26 11:11:52;;;;;;;3.92;2.55;;;13.40;29.40;;;;;;6183463;23;20167;-73
2020/12/26 11:14:20;;;;;;;2.72;1.75;;;13.60;30.30;;;;;;6183897;23;20169;-75
2020/12/26 11:16:48;;;;;;;3.80;2.03;;;13.90;31.60;;;;;;6183886;23;20171;-73
2020/12/26 11:19:18;;;;;;;2.85;1.83;;;14.40;33.20;;;;;;6184108;23;20171;-75
2020/12/26 11:21:50;;;;;;;4.75;2.38;;;14.90;30.80;;;;;;6183657;23;20159;-74
2020/12/26 11:24:20;;;;;;;1.88;1.40;;;15.40;29.50;;;;;;6183583;23;20155;-73
2020/12/26 11:26:52;;;;;;;2.53;1.20;;;15.70;29.20;;;;;;6183606;23;20183;-73
2020/12/26 11:29:19;;;;;;;6.87;1.10;;;16.10;28.30;;;;;;6183753;23;20194;-73
2020/12/26 11:31:46;;;;;;;2.53;1.37;;;15.80;26.70;;;;;;6182825;23;20401;-72
2020/12/26 11:37:21;;;;;;;3.05;1.50;;;14.90;25.60;;;;;;6181906;23;20417;-73
2020/12/26 11:39:48;;;;;;;2.40;1.80;;;13.90;25.60;;;;;;6178140;23;20151;-73
2020/12/26 11:42:22;;;;;;;4.03;2.60;;;13.20;26.40;;;;;;6182671;23;20183;-73
2020/12/26 11:44:49;;;;;;;4.70;2.65;;;12.90;27.60;;;;;;6156247;23;20697;-73
2020/12/26 11:47:16;;;;;;;3.75;2.03;;;12.60;27.70;;;;;;6182732;23;20195;-72
2020/12/26 11:49:49;;;;;;;2.63;1.85;;;12.70;28.00;;;;;;6182283;23;20203;-75
2020/12/26 11:52:15;;;;;;;5.07;2.00;;;13.00;28.50;;;;;;6182379;23;20195;-73
2020/12/26 11:54:44;;;;;;;2.35;1.70;;;13.00;29.20;;;;;;6182511;23;20164;-73
2020/12/26 11:57:10;;;;;;;2.88;2.03;;;13.30;30.30;;;;;;6183788;23;20190;-73
2020/12/26 11:59:42;;;;;;;4.78;1.70;;;13.70;28.80;;;;;;6183398;23;20534;-73
2020/12/26 12:02:10;;;;;;;2.47;1.33;;;14.10;27.00;;;;;;6183911;23;20182;-74
2020/12/26 12:04:41;;;;;;;2.45;1.60;;;14.10;26.10;;;;;;6183201;23;20190;-73
2020/12/26 12:07:08;;;;;;;2.63;1.88;;;14.30;26.80;;;;;;6183036;23;20642;-73
2020/12/26 12:09:34;;;;;;;2.50;1.60;;;14.30;27.00;;;;;;6183605;23;20170;-75
2020/12/26 12:12:01;;;;;;;1.60;1.13;;;14.40;26.60;;;;;;6183508;23;20543;-75
2020/12/26 12:14:31;;;;;;;4.43;1.50;;;14.60;25.70;;;;;;6183462;23;20195;-74
2020/12/26 12:16:58;;;;;;;2.22;1.23;;;14.60;25.10;;;;;;6184119;23;20809;-75
2020/12/26 12:19:25;;;;;;;1.77;0.82;;;14.40;24.40;;;;;;6183906;23;20202;-76
2020/12/26 12:21:52;;;;;;;1.60;1.00;;;14.30;24.10;;;;;;6183312;23;20162;-75
2020/12/26 12:24:20;;;;;;;1.70;0.77;;;14.10;23.90;;;;;;6183222;23;20206;-75
2020/12/26 12:26:46;;;;;;;1.83;0.90;;;14.00;24.30;;;;;;6183105;23;20163;-76
2020/12/26 12:29:13;;;;;;;1.95;1.17;;;13.70;23.70;;;;;;6183248;23;20163;-75
2020/12/26 12:31:40;;;;;;;3.85;2.30;;;13.30;23.40;;;;;;6183920;23;20175;-75
2020/12/26 12:34:52;;;;;;;2.83;2.08;;;12.60;23.10;;;;;;6182934;23;20190;-74
2020/12/26 12:37:25;;;;;;;2.78;1.40;;;12.00;24.30;;;;;;6184526;23;20147;-73
2020/12/26 12:39:51;;;;;;;2.25;1.52;;;11.30;25.10;;;;;;6183787;23;20158;-74
2020/12/26 12:42:18;;;;;;;5.57;2.00;;;10.80;25.80;;;;;;6184200;23;20199;-74
2020/12/26 12:44:44;;;;;;;2.28;1.45;;;10.30;26.40;;;;;;6183674;23;20167;-74
2020/12/26 12:47:11;;;;;;;3.85;1.63;;;9.80;27.90;;;;;;6183952;23;20198;-73
2020/12/26 12:49:37;;;;;;;3.03;1.80;;;9.80;28.80;;;;;;6182545;23;20148;-73
2020/12/26 12:52:04;;;;;;;2.60;1.70;;;9.70;28.70;;;;;;6182713;23;20603;-74
2020/12/26 12:54:32;;;;;;;3.67;2.00;;;9.40;29.00;;;;;;6183196;23;20246;-74
2020/12/26 12:56:58;;;;;;;2.97;1.73;;;9.30;29.80;;;;;;6182234;23;20170;-75
2020/12/26 12:59:24;;;;;;;3.50;1.90;;;9.20;30.00;;;;;;6183048;23;20261;-74
2020/12/26 13:01:51;;;;;;;4.03;1.85;;;9.30;30.80;;;;;;6182180;23;20162;-73
2020/12/26 13:04:17;;;;;;;2.20;1.50;;;9.40;31.10;;;;;;6184133;23;20265;-74
2020/12/26 13:06:44;;;;;;;3.50;1.77;;;9.60;30.90;;;;;;6185240;23;20589;-76
2020/12/26 13:09:10;;;;;;;3.17;2.13;;;9.70;31.20;;;;;;6186037;23;20278;-75
2020/12/26 13:11:37;;;;;;;4.07;2.00;;;9.90;31.00;;;;;;6185302;23;20166;-74
2020/12/26 13:14:04;;;;;;;3.20;1.70;;;9.90;31.20;;;;;;6185261;23;20221;-73
2020/12/26 13:19:52;;;;;;;2.95;2.17;;;9.70;30.00;;;;;;6185734;23;20197;-73
2020/12/26 13:22:25;;;;;;;4.18;2.03;;;9.50;31.30;;;;;;6186658;23;20155;-73
2020/12/26 13:24:51;;;;;;;2.60;1.50;;;9.40;31.50;;;;;;6186663;23;20436;-73
2020/12/26 13:27:19;;;;;;;3.47;1.58;;;9.40;31.50;;;;;;6185058;23;20202;-74
2020/12/26 13:29:45;;;;;;;2.97;1.73;;;9.40;31.10;;;;;;6184529;23;20278;-76
2020/12/26 13:32:11;;;;;;;2.97;1.90;;;9.30;31.50;;;;;;6183591;23;20226;-74
2020/12/26 13:34:39;;;;;;;2.50;1.90;;;9.50;32.00;;;;;;6179548;23;20198;-81
2020/12/26 13:37:05;;;;;;;2.80;1.60;;;9.70;33.10;;;;;;6184126;23;20163;-75
2020/12/26 13:39:31;;;;;;;3.22;1.75;;;9.70;31.90;;;;;;6184192;23;20190;-73
2020/12/26 13:45:21;;;;;;;2.65;1.45;;;9.60;31.70;;;;;;6186062;23;20146;-73
2020/12/26 13:47:49;;;;;;;2.53;1.50;;;9.50;31.00;;;;;;6187372;23;20151;-73
2020/12/26 13:50:16;;;;;;;4.45;1.88;;;9.30;30.30;;;;;;6158587;23;20163;-73
2020/12/26 13:52:42;;;;;;;3.28;1.98;;;8.80;30.10;;;;;;6184786;23;20245;-74
2020/12/26 13:55:11;;;;;;;2.90;1.70;;;8.60;31.50;;;;;;6183386;23;20242;-73
2020/12/26 13:57:37;;;;;;;3.15;1.90;;;8.50;31.80;;;;;;6185858;23;20151;-74
2020/12/26 14:00:05;;;;;;;4.90;1.90;;;8.50;31.60;;;;;;6184987;23;20159;-73
2020/12/26 14:02:37;;;;;;;4.28;2.30;;;8.40;30.50;;;;;;6183121;23;20173;-73
2020/12/26 14:05:06;;;;;;;2.80;2.17;;;8.30;31.70;;;;;;6184800;23;20266;-74
2020/12/26 14:07:35;;;;;;;2.58;1.80;;;8.20;31.60;;;;;;6184050;23;20210;-73
2020/12/26 14:10:03;;;;;;;2.95;2.17;;;7.90;31.10;;;;;;6186495;23;20152;-74
2020/12/26 14:12:29;;;;;;;5.88;2.20;;;7.70;31.90;;;;;;6185108;23;20568;-75
2020/12/26 14:14:56;;;;;;;3.92;2.80;;;7.50;32.40;;;;;;6184546;23;20167;-74
2020/12/26 14:17:23;;;;;;;6.45;3.85;;;7.30;32.80;;;;;;6182993;23;20162;-73
2020/12/26 14:23:13;;;;;;;5.28;2.72;;;6.90;33.30;;;;;;6185683;23;20210;-74
2020/12/26 14:25:39;;;;;;;6.50;3.80;;;6.70;35.20;;;;;;6181777;23;20163;-73
2020/12/26 14:31:32;;;;;;;7.70;4.32;;;6.50;34.00;;;;;;6186392;23;20150;-72
2020/12/26 14:33:59;;;;;;;7.72;4.63;;;6.10;34.30;;;;;;6186378;23;20179;-72
2020/12/26 14:39:48;;;;;;;6.47;4.10;;;5.70;35.10;;;;;;6186932;23;20162;-72
2020/12/26 14:49:42;;;;;;;4.55;3.00;;;5.10;36.60;;;;;;6186800;23;20182;-72
2020/12/26 14:52:09;;;;;;;5.55;3.33;;;5.00;36.20;;;;;;6186001;23;20682;-72
2020/12/26 14:54:35;;;;;;;4.78;2.65;;;4.80;36.30;;;;;;6186755;23;20474;-72
2020/12/26 15:00:25;;;;;;;4.10;2.60;;;4.50;37.50;;;;;;6186982;23;20135;-72
2020/12/26 15:10:01;;;;;;;4.90;3.53;;;4.00;38.90;;;;;;6186697;23;20173;-72
2020/12/26 15:12:33;;;;;;;6.43;4.25;;;3.80;39.50;;;;;;6186464;23;20206;-72
2020/12/26 15:15:00;;;;;;;8.90;4.65;;;3.80;40.00;;;;;;6186430;23;20159;-72
2020/12/26 15:20:49;;;;;;;8.77;4.82;;;3.70;40.70;;;;;;6186636;23;20566;-72
2020/12/26 15:26:37;;;;;;;6.38;3.28;;;3.60;40.90;;;;;;6186585;23;20578;-72
2020/12/26 15:33:18;;;;;;;9.68;4.10;;;3.50;41.60;;;;;;6185985;23;20539;-72
2020/12/26 15:35:44;;;;;;;8.70;4.45;;;3.40;41.90;;;;;;6186583;23;20151;-72
2020/12/26 15:41:34;;;;;;;4.68;3.40;;;3.20;42.20;;;;;;6186354;23;20174;-72
2020/12/26 15:44:13;;;;;;;4.18;2.63;;;3.10;42.40;;;;;;6186203;23;20193;-72
2020/12/26 15:46:39;;;;;;;7.95;2.50;;;3.00;42.40;;;;;;6186535;23;20152;-72
2020/12/26 15:49:21;;;;;;;3.50;2.35;;;2.80;42.90;;;;;;6186205;23;20583;-72
2020/12/26 15:55:05;;;;;;;14.88;7.50;;;2.60;43.30;;;;;;6186262;23;20178;-72
2020/12/26 16:00:54;;;;;;;9.13;5.30;;;2.40;44.20;;;;;;6186084;23;20135;-72
2020/12/26 16:10:19;;;;;;;10.43;8.00;;;2.20;45.90;;;;;;6186036;23;20154;-72
2020/12/26 16:16:10;;;;;;;14.80;8.88;;;2.00;45.90;;;;;;6186161;23;20201;-72
2020/12/26 16:21:59;;;;;;;9.25;6.75;;;1.80;46.30;;;;;;6186020;23;20134;-72
2020/12/26 16:27:49;;;;;;;7.90;6.78;;;1.60;47.10;;;;;;6185992;23;20138;-72
2020/12/26 16:33:41;;;;;;;27.50;16.80;;;1.40;48.00;;;;;;6185896;23;20181;-72
2020/12/26 16:39:29;;;;;;;33.47;17.08;;;1.10;49.50;;;;;;6185808;23;20134;-72
2020/12/26 16:45:17;;;;;;;154.65;71.95;;;1.00;50.30;;;;;;6185769;23;20585;-72
2020/12/26 16:51:07;;;;;;;223.52;81.30;;;0.80;51.10;;;;;;6185735;23;20235;-72
2020/12/26 17:03:29;;;;;;;229.80;85.57;;;0.90;51.40;;;;;;6185703;23;20453;-71
2020/12/26 17:19:18;;;;;;;65.38;29.40;;;1.00;51.70;;;;;;6185152;23;20138;-72
2020/12/26 17:21:46;;;;;;;25.10;10.98;;;0.90;51.90;;;;;;6184734;23;20190;-71
2020/12/26 17:24:14;;;;;;;21.60;9.43;;;0.80;52.20;;;;;;6183870;23;20213;-72
2020/12/26 17:26:43;;;;;;;25.20;12.73;;;0.80;52.10;;;;;;6185653;23;20147;-72
2020/12/26 17:29:12;;;;;;;22.13;9.35;;;0.80;54.00;;;;;;6184190;23;20599;-72
2020/12/26 17:31:41;;;;;;;15.80;8.93;;;0.90;53.80;;;;;;6183503;23;20170;-72
2020/12/26 17:34:15;;;;;;;18.42;9.02;;;0.90;52.50;;;;;;6183247;23;20194;-72
2020/12/26 17:46:50;;;;;;;14.13;7.10;;;1.00;52.70;;;;;;6182590;23;20178;-72
2020/12/26 17:49:17;;;;;;;14.45;8.48;;;0.90;52.20;;;;;;6185401;23;20163;-72
2020/12/26 17:51:44;;;;;;;14.63;8.23;;;0.80;52.00;;;;;;6185337;23;20170;-75
2020/12/26 17:54:11;;;;;;;13.38;10.20;;;0.80;52.30;;;;;;6185162;23;20201;-72
2020/12/26 17:56:38;;;;;;;10.60;7.25;;;0.70;52.50;;;;;;6185638;23;20628;-75
2020/12/26 17:59:04;;;;;;;10.65;7.82;;;0.70;52.50;;;;;;6185335;23;20234;-72
2020/12/26 18:01:31;;;;;;;15.82;9.60;;;0.50;53.00;;;;;;6184949;23;20257;-71